TimePDT,TemperatureF,Dew PointF,Humidity,Sea Level PressureIn,VisibilityMPH,Wind Direction,Wind SpeedMPH,Gust SpeedMPH,PrecipitationIn,Events,Conditions,WindDirDegrees,DateUTC
12:54 AM,66.9,39.9,37,29.92,10.0,Calm,Calm,-,N/A,,Clear,0,2012-10-02 07:54:00
1:54 AM,66.9,39.0,36,29.92,10.0,Calm,Calm,-,N/A,,Clear,0,2012-10-02 08:54:00
2:54 AM,66.0,39.0,37,29.90,10.0,East,4.6,-,N/A,,Clear,100,2012-10-02 09:54:00
3:54 AM,66.0,39.0,37,29.89,10.0,East,5.8,-,N/A,,Clear,100,2012-10-02 10:54:00
4:54 AM,63.0,39.0,41,29.89,10.0,Calm,Calm,-,N/A,,Clear,0,2012-10-02 11:54:00
5:54 AM,64.9,37.9,37,29.88,10.0,Calm,Calm,-,N/A,,Clear,0,2012-10-02 12:54:00
6:54 AM,68.0,35.1,30,29.87,10.0,East,4.6,-,N/A,,Clear,80,2012-10-02 13:54:00
7:54 AM,72.0,34.0,25,29.88,10.0,Calm,Calm,-,N/A,,Clear,0,2012-10-02 14:54:00
8:54 AM,87.1,33.1,15,29.88,10.0,Calm,Calm,-,N/A,,Clear,0,2012-10-02 15:54:00
9:54 AM,84.0,39.0,20,29.88,6.0,Calm,Calm,-,N/A,,Haze,0,2012-10-02 16:54:00
10:54 AM,89.1,42.1,19,29.88,10.0,West,4.6,-,N/A,,Clear,260,2012-10-02 17:54:00
11:54 AM,86.0,46.0,25,29.88,10.0,WNW,5.8,-,N/A,,Clear,300,2012-10-02 18:54:00
12:54 PM,84.0,48.9,29,29.87,10.0,North,4.6,-,N/A,,Clear,350,2012-10-02 19:54:00
1:54 PM,78.1,52.0,40,29.85,10.0,North,4.6,-,N/A,,Clear,10,2012-10-02 20:54:00
2:54 PM,75.0,55.0,50,29.84,10.0,Variable,4.6,-,N/A,,Clear,0,2012-10-02 21:54:00
3:54 PM,77.0,54.0,45,29.83,10.0,NNE,6.9,-,N/A,,Clear,20,2012-10-02 22:54:00
5:54 PM,73.9,52.0,46,29.84,10.0,NNE,3.5,-,N/A,,Clear,20,2012-10-03 00:54:00
6:54 PM,71.1,52.0,51,29.83,10.0,Calm,Calm,-,N/A,,Clear,0,2012-10-03 01:54:00
7:54 PM,71.1,48.9,45,29.84,10.0,East,5.8,-,N/A,,Clear,90,2012-10-03 02:54:00
8:54 PM,66.0,52.0,60,29.86,9.0,WSW,3.5,-,N/A,,Clear,250,2012-10-03 03:54:00
9:54 PM,64.0,52.0,65,29.87,8.0,Calm,Calm,-,N/A,,Clear,0,2012-10-03 04:54:00
10:54 PM,62.1,48.9,62,29.87,10.0,Calm,Calm,-,N/A,,Clear,0,2012-10-03 05:54:00
11:54 PM,61.0,48.0,62,29.87,10.0,East,3.5,-,N/A,,Clear,80,2012-10-03 06:54:00